createdAt,value
2022-08-06T00:00:57.891Z,24
2022-08-06T00:01:57.883Z,24
2022-08-06T00:02:57.866Z,24
2022-08-06T00:03:57.863Z,24
2022-08-06T00:04:57.962Z,24
2022-08-06T00:05:57.838Z,24
2022-08-06T00:06:57.831Z,24
2022-08-06T00:07:57.814Z,24
2022-08-06T00:08:57.816Z,24
2022-08-06T00:09:57.796Z,24
2022-08-06T00:10:57.778Z,24
2022-08-06T00:11:57.821Z,24
2022-08-06T00:12:57.759Z,24
2022-08-06T00:13:57.751Z,24
2022-08-06T00:14:57.738Z,24
2022-08-06T00:15:57.728Z,24
2022-08-06T00:16:57.717Z,24
2022-08-06T00:17:57.723Z,24
2022-08-06T00:18:57.695Z,24
2022-08-06T00:19:57.699Z,24
2022-08-06T00:20:57.690Z,24
2022-08-06T00:21:57.668Z,24
2022-08-06T00:22:57.656Z,24
2022-08-06T00:23:57.641Z,24
2022-08-06T00:24:57.633Z,24
2022-08-06T00:25:57.631Z,24
2022-08-06T00:26:57.613Z,24
2022-08-06T00:27:58.135Z,24
2022-08-06T00:28:57.582Z,24
2022-08-06T00:29:57.577Z,24
2022-08-06T00:30:57.564Z,24
2022-08-06T00:31:57.551Z,24
2022-08-06T00:32:57.547Z,24
2022-08-06T00:33:57.554Z,24
2022-08-06T00:34:57.516Z,24
2022-08-06T00:35:57.511Z,24
2022-08-06T00:36:57.504Z,24
2022-08-06T00:37:57.605Z,24
2022-08-06T00:38:57.473Z,24
2022-08-06T00:39:57.476Z,24
2022-08-06T00:40:57.469Z,24
2022-08-06T00:41:57.442Z,24
2022-08-06T00:42:57.440Z,24
2022-08-06T00:43:57.419Z,24
2022-08-06T00:44:57.427Z,24
2022-08-06T00:45:57.406Z,24
2022-08-06T00:46:57.402Z,24
2022-08-06T00:47:57.381Z,24
2022-08-06T00:48:57.365Z,24
2022-08-06T00:49:57.354Z,24
2022-08-06T00:50:57.348Z,24
2022-08-06T00:51:57.332Z,24
2022-08-06T00:52:57.325Z,24
2022-08-06T00:53:57.310Z,24
2022-08-06T00:54:57.318Z,24
2022-08-06T00:55:57.296Z,24
2022-08-06T00:56:57.277Z,24
2022-08-06T00:57:57.278Z,24
2022-08-06T00:58:57.258Z,24
2022-08-06T00:59:57.249Z,24
2022-08-06T01:00:57.232Z,24
2022-08-06T01:01:57.229Z,24
2022-08-06T01:02:57.214Z,24
2022-08-06T01:03:57.200Z,24
2022-08-06T01:04:57.192Z,24
2022-08-06T01:05:57.180Z,24
2022-08-06T01:06:57.175Z,24
2022-08-06T01:07:57.158Z,24
2022-08-06T01:08:57.152Z,24
2022-08-06T01:09:57.186Z,24
2022-08-06T01:10:57.122Z,24
2022-08-06T01:11:57.111Z,24
2022-08-06T01:12:57.116Z,24
2022-08-06T01:13:57.117Z,24
2022-08-06T01:14:57.665Z,24
2022-08-06T01:15:57.071Z,24
2022-08-06T01:16:57.061Z,24
2022-08-06T01:17:57.060Z,24
2022-08-06T01:18:57.036Z,24
2022-08-06T01:19:57.028Z,24
2022-08-06T01:20:57.020Z,24
2022-08-06T01:21:57.017Z,24
2022-08-06T01:22:56.991Z,24
2022-08-06T01:23:56.986Z,24
2022-08-06T01:24:57.047Z,24
2022-08-06T01:25:56.957Z,24
2022-08-06T01:26:56.958Z,24
2022-08-06T01:27:56.937Z,24
2022-08-06T01:28:56.931Z,24
2022-08-06T01:29:56.911Z,24
2022-08-06T01:30:56.912Z,24
2022-08-06T01:31:56.937Z,24
2022-08-06T01:32:56.882Z,24
2022-08-06T01:33:56.882Z,24
2022-08-06T01:34:56.915Z,24
2022-08-06T01:35:56.850Z,24
2022-08-06T01:36:56.842Z,24
2022-08-06T01:37:56.834Z,24
2022-08-06T01:38:56.830Z,24
2022-08-06T01:39:56.813Z,24
2022-08-06T01:40:56.809Z,24
2022-08-06T01:41:56.822Z,24
2022-08-06T01:42:56.774Z,24
2022-08-06T01:43:56.785Z,24
2022-08-06T01:44:56.762Z,24
2022-08-06T01:45:56.744Z,24
2022-08-06T01:46:56.740Z,28
2022-08-06T01:47:56.714Z,24
2022-08-06T01:48:56.705Z,24
2022-08-06T01:49:56.703Z,24
2022-08-06T01:50:56.693Z,24
2022-08-06T01:51:56.678Z,24
2022-08-06T01:52:56.674Z,24
2022-08-06T01:53:56.654Z,24
2022-08-06T01:54:56.657Z,24
2022-08-06T01:55:56.641Z,24
2022-08-06T01:56:56.629Z,24
2022-08-06T01:57:56.617Z,24
2022-08-06T01:58:56.619Z,24
2022-08-06T01:59:56.594Z,24
2022-08-06T02:00:56.578Z,24
2022-08-06T02:01:56.574Z,24
2022-08-06T02:02:56.563Z,24
2022-08-06T02:03:56.554Z,24
2022-08-06T02:04:56.548Z,24
2022-08-06T02:05:56.538Z,24
2022-08-06T02:06:56.544Z,24
2022-08-06T02:07:56.540Z,24
2022-08-06T02:08:56.500Z,24
2022-08-06T02:09:56.502Z,24
2022-08-06T02:10:56.489Z,24
2022-08-06T02:11:56.474Z,24
2022-08-06T02:12:56.460Z,24
2022-08-06T02:13:56.450Z,24
2022-08-06T02:14:56.439Z,24
2022-08-06T02:15:56.430Z,24
2022-08-06T02:16:56.419Z,24
2022-08-06T02:17:57.124Z,24
2022-08-06T02:18:56.394Z,24
2022-08-06T02:19:56.396Z,24
2022-08-06T02:20:56.371Z,24
2022-08-06T02:21:56.368Z,24
2022-08-06T02:22:56.353Z,24
2022-08-06T02:23:56.339Z,24
2022-08-06T02:24:56.337Z,24
2022-08-06T02:25:56.321Z,24
2022-08-06T02:26:56.310Z,24
2022-08-06T02:27:56.311Z,24
2022-08-06T02:28:56.292Z,24
2022-08-06T02:29:56.284Z,24
2022-08-06T02:30:56.269Z,24
2022-08-06T02:31:56.285Z,24
2022-08-06T02:32:56.249Z,24
2022-08-06T02:33:56.235Z,24
2022-08-06T02:34:56.228Z,24
2022-08-06T02:35:56.238Z,24
2022-08-06T02:36:56.202Z,24
2022-08-06T02:37:56.191Z,24
2022-08-06T02:38:56.194Z,24
2022-08-06T02:39:56.219Z,24
2022-08-06T02:40:56.162Z,24
2022-08-06T02:41:56.152Z,24
2022-08-06T02:42:56.144Z,24
2022-08-06T02:43:56.140Z,24
2022-08-06T02:44:56.118Z,24
2022-08-06T02:45:56.126Z,24
2022-08-06T02:46:56.103Z,24
2022-08-06T02:47:56.090Z,24
2022-08-06T02:48:56.082Z,24
2022-08-06T02:49:56.067Z,24
2022-08-06T02:50:56.059Z,24
2022-08-06T02:51:56.053Z,24
2022-08-06T02:52:56.033Z,24
2022-08-06T02:53:56.026Z,24
2022-08-06T02:54:56.027Z,24
2022-08-06T02:55:56.008Z,24
2022-08-06T02:56:56.000Z,24
2022-08-06T02:57:55.982Z,24
2022-08-06T02:58:55.975Z,24
2022-08-06T02:59:55.968Z,24
2022-08-06T03:00:55.966Z,24
2022-08-06T03:01:55.939Z,24
2022-08-06T03:02:55.933Z,24
2022-08-06T03:03:55.920Z,24
2022-08-06T03:04:55.926Z,24
2022-08-06T03:05:55.901Z,24
2022-08-06T03:06:55.885Z,24
2022-08-06T03:07:55.879Z,24
2022-08-06T03:08:55.867Z,24
2022-08-06T03:09:55.854Z,24
2022-08-06T03:10:55.848Z,24
2022-08-06T03:11:55.829Z,24
2022-08-06T03:12:55.820Z,24
2022-08-06T03:13:55.810Z,28
2022-08-06T03:14:55.800Z,28
2022-08-06T03:15:55.795Z,28
2022-08-06T03:16:55.782Z,28
2022-08-06T03:17:55.771Z,28
2022-08-06T03:18:55.765Z,28
2022-08-06T03:19:55.754Z,28
2022-08-06T03:20:55.734Z,28
2022-08-06T03:21:55.736Z,28
2022-08-06T03:22:55.717Z,28
2022-08-06T03:23:55.705Z,28
2022-08-06T03:24:55.696Z,28
2022-08-06T03:25:55.680Z,28
2022-08-06T03:26:55.683Z,20
2022-08-06T03:27:55.667Z,20
2022-08-06T03:28:55.653Z,20
2022-08-06T03:29:55.648Z,20
2022-08-06T03:30:55.631Z,20
2022-08-06T03:31:55.621Z,24
2022-08-06T03:32:55.618Z,24
2022-08-06T03:33:55.614Z,28
2022-08-06T03:34:55.595Z,28
2022-08-06T03:35:55.592Z,32
2022-08-06T03:36:55.569Z,64
2022-08-06T03:37:55.565Z,36
2022-08-06T03:38:55.579Z,40
2022-08-06T03:39:55.537Z,44
2022-08-06T03:40:55.536Z,44
2022-08-06T03:41:55.525Z,48
2022-08-06T03:42:55.514Z,52
2022-08-06T03:43:55.504Z,60
2022-08-06T03:44:55.490Z,68
2022-08-06T03:45:55.476Z,72
2022-08-06T03:46:55.472Z,80
2022-08-06T03:47:55.460Z,88
2022-08-06T03:48:55.445Z,92
2022-08-06T03:49:55.435Z,104
2022-08-06T03:50:55.423Z,112
2022-08-06T03:51:55.423Z,120
2022-08-06T03:52:55.406Z,136
2022-08-06T03:53:55.386Z,148
2022-08-06T03:54:55.383Z,156
2022-08-06T03:55:55.385Z,160
2022-08-06T03:56:55.367Z,172
2022-08-06T03:57:55.356Z,188
2022-08-06T03:58:55.335Z,200
2022-08-06T03:59:55.327Z,216
2022-08-06T04:00:55.326Z,228
2022-08-06T04:01:55.332Z,248
2022-08-06T04:02:55.295Z,260
2022-08-06T04:03:55.290Z,276
2022-08-06T04:04:55.281Z,296
2022-08-06T04:05:55.261Z,312
2022-08-06T04:06:55.253Z,328
2022-08-06T04:07:55.242Z,348
2022-08-06T04:08:55.235Z,364
2022-08-06T04:09:55.223Z,384
2022-08-06T04:10:55.211Z,404
2022-08-06T04:11:55.216Z,416
2022-08-06T04:12:55.188Z,436
2022-08-06T04:13:55.181Z,452
2022-08-06T04:14:55.170Z,472
2022-08-06T04:15:55.167Z,492
2022-08-06T04:16:55.147Z,512
2022-08-06T04:17:55.134Z,532
2022-08-06T04:18:55.140Z,548
2022-08-06T04:19:55.109Z,568
2022-08-06T04:20:55.096Z,584
2022-08-06T04:21:55.112Z,604
2022-08-06T04:22:55.087Z,624
2022-08-06T04:23:55.066Z,640
2022-08-06T04:24:55.061Z,660
2022-08-06T04:25:55.057Z,672
2022-08-06T04:26:55.036Z,692
2022-08-06T04:27:55.051Z,708
2022-08-06T04:28:55.016Z,728
2022-08-06T04:29:55.031Z,748
2022-08-06T04:30:54.995Z,760
2022-08-06T04:31:54.979Z,776
2022-08-06T04:32:54.999Z,792
2022-08-06T04:33:54.958Z,808
2022-08-06T04:34:54.962Z,824
2022-08-06T04:35:54.946Z,840
2022-08-06T04:36:54.928Z,860
2022-08-06T04:37:54.918Z,868
2022-08-06T04:38:54.909Z,884
2022-08-06T04:39:54.894Z,900
2022-08-06T04:40:54.889Z,912
2022-08-06T04:41:54.881Z,928
2022-08-06T04:42:54.865Z,944
2022-08-06T04:43:54.861Z,960
2022-08-06T04:44:54.845Z,972
2022-08-06T04:45:54.834Z,988
2022-08-06T04:46:54.823Z,1004
2022-08-06T04:47:54.834Z,1016
2022-08-06T04:48:54.801Z,1032
2022-08-06T04:49:54.787Z,1048
2022-08-06T04:50:54.777Z,1060
2022-08-06T04:51:54.769Z,1076
2022-08-06T04:52:54.769Z,1092
2022-08-06T04:53:54.748Z,1108
2022-08-06T04:54:54.740Z,1132
2022-08-06T04:55:54.745Z,1136
2022-08-06T04:56:54.711Z,1152
2022-08-06T04:57:54.709Z,1168
2022-08-06T04:58:54.693Z,1184
2022-08-06T04:59:54.687Z,1200
2022-08-06T05:00:54.687Z,1220
2022-08-06T05:01:54.660Z,1236
2022-08-06T05:02:54.641Z,1252
2022-08-06T05:03:54.647Z,1272
2022-08-06T05:04:54.629Z,1284
2022-08-06T05:05:54.619Z,1304
2022-08-06T05:06:54.612Z,1316
2022-08-06T05:07:54.586Z,1336
2022-08-06T05:08:54.581Z,1356
2022-08-06T05:09:54.593Z,1376
2022-08-06T05:10:54.604Z,1400
2022-08-06T05:11:54.550Z,1432
2022-08-06T05:12:54.546Z,1464
2022-08-06T05:13:54.532Z,1492
2022-08-06T05:14:54.518Z,1520
2022-08-06T05:15:54.507Z,1552
2022-08-06T05:16:54.492Z,1588
2022-08-06T05:17:54.482Z,1616
2022-08-06T05:18:54.492Z,1652
2022-08-06T05:19:54.471Z,1680
2022-08-06T05:20:54.453Z,1716
2022-08-06T05:21:54.435Z,1748
2022-08-06T05:22:54.438Z,1784
2022-08-06T05:23:54.423Z,1816
2022-08-06T05:24:54.405Z,1856
2022-08-06T05:25:54.400Z,1888
2022-08-06T05:26:54.395Z,1928
2022-08-06T05:27:54.402Z,1968
2022-08-06T05:28:54.368Z,2020
2022-08-06T05:29:54.359Z,2100
2022-08-06T05:30:54.342Z,2116
2022-08-06T05:31:54.336Z,2312
2022-08-06T05:32:54.321Z,2220
2022-08-06T05:33:54.327Z,2272
2022-08-06T05:34:54.304Z,2332
2022-08-06T05:35:54.297Z,2388
2022-08-06T05:36:54.283Z,2452
2022-08-06T05:37:54.271Z,2516
2022-08-06T05:38:54.257Z,2568
2022-08-06T05:39:54.245Z,2600
2022-08-06T05:40:54.230Z,2624
2022-08-06T05:41:54.237Z,2660
2022-08-06T05:42:54.212Z,2684
2022-08-06T05:43:54.209Z,2720
2022-08-06T05:44:54.214Z,2752
2022-08-06T05:45:54.190Z,2792
2022-08-06T05:46:54.185Z,2832
2022-08-06T05:47:54.161Z,2888
2022-08-06T05:48:54.149Z,2980
2022-08-06T05:49:54.150Z,3088
2022-08-06T05:50:55.125Z,3192
2022-08-06T05:51:54.121Z,3304
2022-08-06T05:52:54.114Z,3388
2022-08-06T05:53:54.108Z,3460
2022-08-06T05:54:54.093Z,3520
2022-08-06T05:55:54.082Z,3576
2022-08-06T05:56:54.083Z,3592
2022-08-06T05:57:54.053Z,3612
2022-08-06T05:58:54.052Z,3732
2022-08-06T05:59:54.043Z,3828
2022-08-06T06:00:54.044Z,3900
2022-08-06T06:01:54.050Z,3960
2022-08-06T06:02:54.001Z,4008
2022-08-06T06:03:54.019Z,3940
2022-08-06T06:04:53.983Z,4060
2022-08-06T06:05:53.965Z,4068
2022-08-06T06:06:53.965Z,4164
2022-08-06T06:07:53.954Z,4184
2022-08-06T06:08:53.938Z,4196
2022-08-06T06:09:53.933Z,4212
2022-08-06T06:10:53.933Z,4220
2022-08-06T06:11:53.913Z,4212
2022-08-06T06:12:53.945Z,4240
2022-08-06T06:13:53.929Z,4120
2022-08-06T06:14:53.869Z,4064
2022-08-06T06:15:53.877Z,4064
2022-08-06T06:16:53.857Z,4072
2022-08-06T06:17:53.857Z,4064
2022-08-06T06:18:53.826Z,4032
2022-08-06T06:19:53.817Z,4028
2022-08-06T06:20:53.812Z,3980
2022-08-06T06:21:53.806Z,4100
2022-08-06T06:22:53.805Z,4040
2022-08-06T06:23:53.783Z,4096
2022-08-06T06:24:53.767Z,4088
2022-08-06T06:25:53.756Z,4080
2022-08-06T06:26:53.745Z,4196
2022-08-06T06:27:53.749Z,4184
2022-08-06T06:28:53.724Z,4168
2022-08-06T06:29:53.713Z,4152
2022-08-06T06:30:53.705Z,4080
2022-08-06T06:31:53.688Z,4108
2022-08-06T06:32:53.691Z,4088
2022-08-06T06:33:53.707Z,4084
2022-08-06T06:34:53.656Z,4064
2022-08-06T06:35:53.660Z,4056
2022-08-06T06:36:53.635Z,4016
2022-08-06T06:37:53.627Z,4024
2022-08-06T06:38:53.614Z,4004
2022-08-06T06:39:53.612Z,3904
2022-08-06T06:40:53.591Z,3904
2022-08-06T06:41:53.587Z,3956
2022-08-06T06:42:53.575Z,3956
2022-08-06T06:43:53.559Z,3912
2022-08-06T06:44:53.556Z,3916
2022-08-06T06:45:53.568Z,3916
2022-08-06T06:46:53.523Z,3908
2022-08-06T06:47:53.516Z,3908
2022-08-06T06:48:53.507Z,3904
2022-08-06T06:49:53.493Z,4592
2022-08-06T06:50:53.486Z,3892
2022-08-06T06:51:53.473Z,3888
2022-08-06T06:52:53.467Z,3888
2022-08-06T06:53:53.451Z,3872
2022-08-06T06:54:53.443Z,3892
2022-08-06T06:55:53.428Z,3848
2022-08-06T06:56:53.419Z,3904
2022-08-06T06:57:53.404Z,3892
2022-08-06T06:58:53.400Z,3904
2022-08-06T06:59:53.379Z,3888
2022-08-06T07:00:53.386Z,3852
2022-08-06T07:01:53.368Z,3904
2022-08-06T07:02:53.393Z,4148
2022-08-06T07:03:53.355Z,3876
2022-08-06T07:04:53.327Z,4200
2022-08-06T07:05:53.317Z,4576
2022-08-06T07:06:53.300Z,5084
2022-08-06T07:07:53.293Z,5776
2022-08-06T07:08:53.281Z,6340
2022-08-06T07:09:53.274Z,6608
2022-08-06T07:10:53.264Z,6712
2022-08-06T07:11:53.251Z,6888
2022-08-06T07:12:53.235Z,6916
2022-08-06T07:13:53.223Z,6976
2022-08-06T07:14:53.217Z,7036
2022-08-06T07:15:53.205Z,7136
2022-08-06T07:16:54.119Z,6984
2022-08-06T07:17:53.178Z,6956
2022-08-06T07:18:53.181Z,6664
2022-08-06T07:19:53.169Z,7128
2022-08-06T07:20:53.155Z,7196
2022-08-06T07:21:53.146Z,7220
2022-08-06T07:22:53.137Z,7584
2022-08-06T07:23:53.121Z,7672
2022-08-06T07:24:53.108Z,7760
2022-08-06T07:25:53.104Z,7872
2022-08-06T07:26:53.092Z,7856
2022-08-06T07:27:53.081Z,7888
2022-08-06T07:28:53.068Z,8020
2022-08-06T07:29:53.053Z,8120
2022-08-06T07:30:53.044Z,8128
2022-08-06T07:31:53.081Z,8284
2022-08-06T07:32:53.018Z,8264
2022-08-06T07:33:53.003Z,8388
2022-08-06T07:34:53.005Z,8508
2022-08-06T07:35:52.989Z,6304
2022-08-06T07:36:53.010Z,9280
2022-08-06T07:37:52.965Z,9568
2022-08-06T07:38:53.639Z,9376
2022-08-06T07:39:52.942Z,9272
2022-08-06T07:40:52.944Z,9356
2022-08-06T07:41:52.923Z,9424
2022-08-06T07:42:52.926Z,9520
2022-08-06T07:43:52.938Z,9920
2022-08-06T07:44:52.887Z,10184
2022-08-06T07:45:52.889Z,10212
2022-08-06T07:46:52.872Z,10280
2022-08-06T07:47:53.021Z,10160
2022-08-06T07:48:52.875Z,10528
2022-08-06T07:49:52.854Z,11088
2022-08-06T07:50:52.828Z,11148
2022-08-06T07:51:52.834Z,11332
2022-08-06T07:52:52.798Z,10996
2022-08-06T07:53:52.791Z,10560
2022-08-06T07:54:52.799Z,10220
2022-08-06T07:55:52.789Z,10672
2022-08-06T07:56:52.766Z,11320
2022-08-06T07:57:52.750Z,11584
2022-08-06T07:58:52.736Z,11584
2022-08-06T07:59:52.731Z,11300
2022-08-06T08:00:52.719Z,11604
2022-08-06T08:01:52.707Z,11592
2022-08-06T08:02:52.701Z,11512
2022-08-06T08:03:52.688Z,11576
2022-08-06T08:04:52.677Z,8864
2022-08-06T08:05:52.681Z,11892
2022-08-06T08:06:52.659Z,9680
2022-08-06T08:07:52.646Z,11752
2022-08-06T08:08:52.632Z,11444
2022-08-06T08:09:52.621Z,11656
2022-08-06T08:10:52.610Z,11624
2022-08-06T08:11:52.616Z,11680
2022-08-06T08:12:52.608Z,11836
2022-08-06T08:13:52.574Z,12100
2022-08-06T08:14:52.571Z,12308
2022-08-06T08:15:52.568Z,12796
2022-08-06T08:16:52.571Z,12992
2022-08-06T08:17:52.539Z,12772
2022-08-06T08:18:52.540Z,12716
2022-08-06T08:19:52.517Z,12504
2022-08-06T08:20:52.522Z,12604
2022-08-06T08:21:52.493Z,12188
2022-08-06T08:22:52.539Z,12088
2022-08-06T08:23:52.470Z,11744
2022-08-06T08:24:52.459Z,12500
2022-08-06T08:25:52.516Z,12740
2022-08-06T08:26:52.449Z,12756
2022-08-06T08:27:52.429Z,12712
2022-08-06T08:28:52.423Z,13044
2022-08-06T08:29:52.410Z,13004
2022-08-06T08:30:52.399Z,13288
2022-08-06T08:31:52.468Z,13364
2022-08-06T08:32:52.376Z,13272
2022-08-06T08:33:52.383Z,13304
2022-08-06T08:34:52.386Z,11992
2022-08-06T08:35:52.352Z,13272
2022-08-06T08:36:52.343Z,11352
2022-08-06T08:37:52.318Z,4688
2022-08-06T08:38:52.313Z,4740
2022-08-06T08:39:52.312Z,13384
2022-08-06T08:40:52.336Z,12872
2022-08-06T08:41:52.298Z,12644
2022-08-06T08:42:52.266Z,12732
2022-08-06T08:43:52.272Z,12720
2022-08-06T08:44:52.248Z,12768
2022-08-06T08:45:52.235Z,12756
2022-08-06T08:46:52.231Z,12740
2022-08-06T08:47:52.229Z,12940
2022-08-06T08:48:52.220Z,13380
2022-08-06T08:49:52.197Z,13420
2022-08-06T08:50:52.188Z,13736
2022-08-06T08:51:52.174Z,14012
2022-08-06T08:52:52.167Z,13944
2022-08-06T08:53:52.166Z,14048
2022-08-06T08:54:52.140Z,14000
2022-08-06T08:55:52.125Z,14260
2022-08-06T08:56:52.132Z,13628
2022-08-06T08:57:52.112Z,13460
2022-08-06T08:58:52.093Z,13504
2022-08-06T08:59:52.089Z,13524
2022-08-06T09:00:52.077Z,13804
2022-08-06T09:01:52.066Z,13980
2022-08-06T09:02:52.052Z,14176
2022-08-06T09:03:52.039Z,14208
2022-08-06T09:04:52.034Z,14224
2022-08-06T09:05:52.023Z,14180
2022-08-06T09:06:52.019Z,14080
2022-08-06T09:07:52.002Z,13648
2022-08-06T09:08:51.999Z,13524
2022-08-06T09:09:52.043Z,13472
2022-08-06T09:10:51.969Z,13444
2022-08-06T09:11:51.955Z,13572
2022-08-06T09:12:52.264Z,13744
2022-08-06T09:13:51.933Z,13720
2022-08-06T09:14:51.925Z,13884
2022-08-06T09:15:51.961Z,13884
2022-08-06T09:16:51.929Z,13952
2022-08-06T09:17:51.903Z,14012
2022-08-06T09:18:51.893Z,13844
2022-08-06T09:19:51.877Z,13828
2022-08-06T09:20:51.858Z,13836
2022-08-06T09:21:51.849Z,14012
2022-08-06T09:22:51.858Z,14352
2022-08-06T09:23:52.638Z,14788
2022-08-06T09:24:51.815Z,15364
2022-08-06T09:25:51.805Z,7016
2022-08-06T09:26:51.792Z,5928
2022-08-06T09:27:51.782Z,16704
2022-08-06T09:28:51.776Z,9904
2022-08-06T09:29:51.763Z,15876
2022-08-06T09:30:51.753Z,16304
2022-08-06T09:31:51.753Z,15340
2022-08-06T09:32:51.732Z,15116
2022-08-06T09:33:51.736Z,14948
2022-08-06T09:34:51.704Z,14876
2022-08-06T09:35:51.700Z,15028
2022-08-06T09:36:51.689Z,14836
2022-08-06T09:37:51.713Z,14908
2022-08-06T09:38:51.664Z,16896
2022-08-06T09:39:51.657Z,16208
2022-08-06T09:40:51.644Z,15220
2022-08-06T09:41:51.680Z,15260
2022-08-06T09:42:51.625Z,15400
2022-08-06T09:43:51.616Z,15432
2022-08-06T09:44:51.627Z,14944
2022-08-06T09:45:51.592Z,15356
2022-08-06T09:46:51.601Z,15764
2022-08-06T09:47:51.569Z,16288
2022-08-06T09:48:51.587Z,16384
2022-08-06T09:49:51.557Z,16440
2022-08-06T09:50:51.541Z,17248
2022-08-06T09:51:51.534Z,17792
2022-08-06T09:52:51.517Z,17856
2022-08-06T09:53:51.533Z,18016
2022-08-06T09:54:51.504Z,18112
2022-08-06T09:55:51.506Z,17856
2022-08-06T09:56:51.478Z,18656
2022-08-06T09:57:51.533Z,19168
2022-08-06T09:58:51.456Z,18720
2022-08-06T09:59:51.452Z,18720
2022-08-06T10:00:51.446Z,18912
2022-08-06T10:01:51.446Z,19616
2022-08-06T10:02:51.422Z,19904
2022-08-06T10:03:51.401Z,20544
2022-08-06T10:04:51.392Z,23744
2022-08-06T10:05:51.381Z,28192
2022-08-06T10:06:51.369Z,34944
2022-08-06T10:07:51.376Z,38336
2022-08-06T10:08:51.353Z,6948
2022-08-06T10:09:51.335Z,6360
2022-08-06T10:10:51.325Z,6472
2022-08-06T10:11:51.315Z,6396
2022-08-06T10:12:51.322Z,6320
2022-08-06T10:13:51.296Z,6384
2022-08-06T10:14:51.292Z,6820
2022-08-06T10:15:51.306Z,66368
2022-08-06T10:16:52.266Z,64256
2022-08-06T10:17:51.253Z,66912
2022-08-06T10:18:51.344Z,64512
2022-08-06T10:19:51.239Z,64032
2022-08-06T10:20:51.220Z,60096
2022-08-06T10:21:51.212Z,57760
2022-08-06T10:22:51.198Z,60800
2022-08-06T10:23:51.215Z,58112
2022-08-06T10:24:51.179Z,59776
2022-08-06T10:25:51.193Z,58528
2022-08-06T10:26:51.160Z,55616
2022-08-06T10:27:51.169Z,59200
2022-08-06T10:28:51.135Z,59264
2022-08-06T10:29:51.126Z,64224
2022-08-06T10:30:51.137Z,68608
2022-08-06T10:31:51.096Z,70656
2022-08-06T10:32:51.098Z,70112
2022-08-06T10:33:51.081Z,63616
2022-08-06T10:34:51.088Z,40000
2022-08-06T10:35:51.066Z,34016
2022-08-06T10:36:51.057Z,19584
2022-08-06T10:37:51.050Z,11748
2022-08-06T10:38:51.030Z,11720
2022-08-06T10:39:51.042Z,12240
2022-08-06T10:40:51.015Z,12648
2022-08-06T10:41:50.995Z,17760
2022-08-06T10:42:50.993Z,23168
2022-08-06T10:43:50.985Z,20160
2022-08-06T10:44:51.009Z,20992
2022-08-06T10:45:50.952Z,22144
2022-08-06T10:46:50.945Z,20672
2022-08-06T10:47:50.935Z,20128
2022-08-06T10:48:50.932Z,19872
2022-08-06T10:49:50.935Z,20544
2022-08-06T10:50:50.902Z,21472
2022-08-06T10:51:51.641Z,36704
2022-08-06T10:52:50.884Z,62944
2022-08-06T10:53:50.881Z,66656
2022-08-06T10:54:50.897Z,70816
2022-08-06T10:55:50.863Z,75264
2022-08-06T10:56:50.837Z,10780
2022-08-06T10:57:50.834Z,9340
2022-08-06T10:58:50.828Z,9104
2022-08-06T10:59:50.812Z,9260
2022-08-06T11:00:50.792Z,10352
2022-08-06T11:01:50.789Z,14992
2022-08-06T11:02:50.785Z,86400
2022-08-06T11:03:50.769Z,84768
2022-08-06T11:04:50.758Z,83872
2022-08-06T11:05:50.756Z,82464
2022-08-06T11:06:50.777Z,82112
2022-08-06T11:07:50.730Z,82016
2022-08-06T11:08:50.724Z,81248
2022-08-06T11:09:50.702Z,81568
2022-08-06T11:10:50.698Z,81536
2022-08-06T11:11:50.716Z,81568
2022-08-06T11:12:50.676Z,12728
2022-08-06T11:13:50.694Z,83328
2022-08-06T11:14:50.666Z,79520
2022-08-06T11:15:50.643Z,33248
2022-08-06T11:16:50.647Z,10976
2022-08-06T11:17:50.624Z,7632
2022-08-06T11:18:50.640Z,7012
2022-08-06T11:19:50.596Z,7056
2022-08-06T11:20:50.591Z,7008
2022-08-06T11:21:50.594Z,6764
2022-08-06T11:22:50.565Z,6600
2022-08-06T11:23:50.552Z,7120
2022-08-06T11:24:50.544Z,6880
2022-08-06T11:25:50.545Z,7024
2022-08-06T11:26:50.529Z,7412
2022-08-06T11:27:50.519Z,9176
2022-08-06T11:28:50.501Z,84448
2022-08-06T11:29:50.501Z,84096
2022-08-06T11:30:50.483Z,84064
2022-08-06T11:31:50.521Z,84352
2022-08-06T11:32:50.460Z,83136
2022-08-06T11:33:50.465Z,81760
2022-08-06T11:34:50.446Z,79712
2022-08-06T11:35:50.428Z,78464
2022-08-06T11:36:50.420Z,78048
2022-08-06T11:37:50.415Z,77184
2022-08-06T11:38:50.412Z,76064
2022-08-06T11:39:50.388Z,75136
2022-08-06T11:40:50.376Z,75328
2022-08-06T11:41:50.371Z,75744
2022-08-06T11:42:50.377Z,76640
2022-08-06T11:43:50.407Z,75264
2022-08-06T11:44:50.358Z,75360
2022-08-06T11:45:50.330Z,77600
2022-08-06T11:46:50.348Z,78016
2022-08-06T11:47:50.304Z,63968
2022-08-06T11:48:50.306Z,10432
2022-08-06T11:49:50.294Z,12848
2022-08-06T11:50:50.284Z,8748
2022-08-06T11:51:50.272Z,7752
2022-08-06T11:52:50.254Z,8000
2022-08-06T11:53:50.243Z,8560
2022-08-06T11:54:50.233Z,9480
2022-08-06T11:55:50.223Z,17500
2022-08-06T11:56:50.223Z,41152
2022-08-06T11:57:50.208Z,85664
2022-08-06T11:58:50.199Z,30464
2022-08-06T11:59:50.183Z,81504
2022-08-06T12:00:50.203Z,16856
2022-08-06T12:01:50.156Z,42496
2022-08-06T12:02:50.148Z,85888
2022-08-06T12:03:50.136Z,84192
2022-08-06T12:04:50.150Z,84000
2022-08-06T12:05:50.117Z,87040
2022-08-06T12:06:50.128Z,85824
2022-08-06T12:07:50.110Z,85856
2022-08-06T12:08:50.119Z,85760
2022-08-06T12:09:50.088Z,82176
2022-08-06T12:10:50.095Z,84736
2022-08-06T12:11:50.081Z,84736
2022-08-06T12:12:50.048Z,84288
2022-08-06T12:13:50.040Z,82336
2022-08-06T12:14:50.096Z,81696
2022-08-06T12:15:50.037Z,39968
2022-08-06T12:16:50.011Z,9552
2022-08-06T12:17:50.000Z,7336
2022-08-06T12:18:49.985Z,6852
2022-08-06T12:19:49.972Z,7024
2022-08-06T12:20:49.981Z,7412
2022-08-06T12:21:49.955Z,8052
2022-08-06T12:22:49.943Z,8768
2022-08-06T12:23:49.933Z,8864
2022-08-06T12:24:50.054Z,8516
2022-08-06T12:25:49.913Z,8440
2022-08-06T12:26:50.013Z,8540
2022-08-06T12:27:49.902Z,8232
2022-08-06T12:28:49.890Z,7540
2022-08-06T12:29:49.896Z,7504
2022-08-06T12:30:50.863Z,7576
2022-08-06T12:31:49.852Z,8000
2022-08-06T12:32:49.838Z,8688
2022-08-06T12:33:49.830Z,8016
2022-08-06T12:34:49.814Z,7808
2022-08-06T12:35:49.809Z,7260
2022-08-06T12:36:49.799Z,7488
2022-08-06T12:37:49.793Z,7308
2022-08-06T12:38:49.802Z,7264
2022-08-06T12:39:49.772Z,7416
2022-08-06T12:40:49.793Z,7352
2022-08-06T12:41:49.745Z,7420
2022-08-06T12:42:49.734Z,7904
2022-08-06T12:43:49.737Z,8088
2022-08-06T12:44:49.735Z,9396
2022-08-06T12:45:49.736Z,28320
2022-08-06T12:46:49.700Z,76736
2022-08-06T12:47:49.688Z,49376
2022-08-06T12:48:49.674Z,79296
2022-08-06T12:49:50.680Z,77152
2022-08-06T12:50:49.897Z,87520
2022-08-06T12:51:50.653Z,78624
2022-08-06T12:52:49.636Z,63584
2022-08-06T12:53:49.669Z,18624
2022-08-06T12:54:49.626Z,60512
2022-08-06T12:55:49.604Z,10116
2022-08-06T12:56:49.609Z,29728
2022-08-06T12:57:49.574Z,8792
2022-08-06T12:58:49.584Z,8100
2022-08-06T12:59:49.563Z,8440
2022-08-06T13:00:49.542Z,8444
2022-08-06T13:01:49.562Z,11424
2022-08-06T13:02:49.538Z,72928
2022-08-06T13:03:49.549Z,72960
2022-08-06T13:04:50.504Z,71680
2022-08-06T13:05:49.524Z,75040
2022-08-06T13:06:49.480Z,69344
2022-08-06T13:07:49.472Z,42528
2022-08-06T13:08:49.460Z,20768
2022-08-06T13:09:49.444Z,18688
2022-08-06T13:10:49.439Z,17760
2022-08-06T13:11:49.434Z,17088
2022-08-06T13:12:49.411Z,16200
2022-08-06T13:13:49.416Z,11400
2022-08-06T13:14:49.396Z,7412
2022-08-06T13:15:49.385Z,6920
2022-08-06T13:16:49.386Z,7204
2022-08-06T13:17:49.388Z,7904
2022-08-06T13:18:49.392Z,8164
2022-08-06T13:19:49.365Z,7968
2022-08-06T13:20:49.359Z,8072
2022-08-06T13:21:49.325Z,7664
2022-08-06T13:22:49.324Z,7508
2022-08-06T13:23:49.296Z,7488
2022-08-06T13:24:49.429Z,7300
2022-08-06T13:25:49.275Z,7216
2022-08-06T13:26:49.268Z,7228